Sumampa, Argentina
Current Conditions -  °F | °C
As of 3:00 PM on Friday 21 Nov 2014 (Local Time) from SACO Reporting Station
Broken Clouds Broken Clouds  
Wind Chill: 72°   Ceiling: 2500
Heat Index: 72°   Visibility: 6mi
Dew Point: 54°   Wind: 6mph
Humidity: 53%   Direction: 140°SE
Pressure: 30"   Gusts: NA
Location:  29.37°S, 63.47°W
Report Text: SACO 211800Z 14005KT 9999 BKN025 22/12 Q1016
Loading
Personal Weather Stations






























Interactive Weather Map New forecast layout! Learn more

10-Day Weather Forecast

Advertisements
Track Severe Weather on mobile